sensor_id;sensor_type;location;lat;lon;timestamp;temperature;humidity
11559;DHT22;5835;42.930;25.178;2023-07-28T00:00:06;15.70;1.00
11559;DHT22;5835;42.930;25.178;2023-07-28T00:02:36;15.60;1.00
11559;DHT22;5835;42.930;25.178;2023-07-28T00:05:05;15.40;1.00
11559;DHT22;5835;42.930;25.178;2023-07-28T00:07:33;15.40;1.00
11559;DHT22;5835;42.930;25.178;2023-07-28T00:10:02;15.20;1.00
11559;DHT22;5835;42.930;25.178;2023-07-28T00:12:30;15.30;1.00
11559;DHT22;5835;42.930;25.178;2023-07-28T00:14:58;15.40;1.00
11559;DHT22;5835;42.930;25.178;2023-07-28T00:17:26;15.50;1.00
11559;DHT22;5835;42.930;25.178;2023-07-28T00:19:55;15.40;1.00
11559;DHT22;5835;42.930;25.178;2023-07-28T00:22:23;15.40;1.00
11559;DHT22;5835;42.930;25.178;2023-07-28T00:24:51;15.40;1.00
11559;DHT22;5835;42.930;25.178;2023-07-28T00:27:19;15.30;1.00
11559;DHT22;5835;42.930;25.178;2023-07-28T00:29:47;15.40;1.00
11559;DHT22;5835;42.930;25.178;2023-07-28T00:32:14;15.40;1.00
11559;DHT22;5835;42.930;25.178;2023-07-28T00:34:42;15.10;1.00
11559;DHT22;5835;42.930;25.178;2023-07-28T00:37:11;15.10;1.00
11559;DHT22;5835;42.930;25.178;2023-07-28T00:39:40;15.10;4.10
11559;DHT22;5835;42.930;25.178;2023-07-28T00:42:08;15.00;1.00
11559;DHT22;5835;42.930;25.178;2023-07-28T00:44:35;15.00;1.00
11559;DHT22;5835;42.930;25.178;2023-07-28T00:47:03;15.00;1.00
11559;DHT22;5835;42.930;25.178;2023-07-28T00:49:32;14.80;1.00
11559;DHT22;5835;42.930;25.178;2023-07-28T00:52:00;14.70;28.20
11559;DHT22;5835;42.930;25.178;2023-07-28T00:54:29;14.60;8.50
11559;DHT22;5835;42.930;25.178;2023-07-28T00:56:56;14.80;80.30
11559;DHT22;5835;42.930;25.178;2023-07-28T00:59:24;14.80;9.10
11559;DHT22;5835;42.930;25.178;2023-07-28T01:01:52;14.70;19.00
11559;DHT22;5835;42.930;25.178;2023-07-28T01:04:20;14.80;78.20
11559;DHT22;5835;42.930;25.178;2023-07-28T01:06:52;14.90;14.90
11559;DHT22;5835;42.930;25.178;2023-07-28T01:09:24;15.00;25.80
11559;DHT22;5835;42.930;25.178;2023-07-28T01:11:56;14.60;21.80
11559;DHT22;5835;42.930;25.178;2023-07-28T01:14:24;14.60;28.00
11559;DHT22;5835;42.930;25.178;2023-07-28T01:16:52;14.40;32.00
11559;DHT22;5835;42.930;25.178;2023-07-28T01:19:21;14.20;99.90
11559;DHT22;5835;42.930;25.178;2023-07-28T01:21:59;14.00;99.90
11559;DHT22;5835;42.930;25.178;2023-07-28T01:24:48;14.00;99.90
11559;DHT22;5835;42.930;25.178;2023-07-28T01:27:19;14.20;99.90
11559;DHT22;5835;42.930;25.178;2023-07-28T01:29:48;14.40;99.90
11559;DHT22;5835;42.930;25.178;2023-07-28T01:32:16;14.50;99.90
11559;DHT22;5835;42.930;25.178;2023-07-28T01:34:43;14.40;99.90
11559;DHT22;5835;42.930;25.178;2023-07-28T01:37:11;14.30;99.90
11559;DHT22;5835;42.930;25.178;2023-07-28T01:39:39;14.30;99.90
11559;DHT22;5835;42.930;25.178;2023-07-28T01:42:07;14.30;99.90
11559;DHT22;5835;42.930;25.178;2023-07-28T01:44:36;14.40;99.90
11559;DHT22;5835;42.930;25.178;2023-07-28T01:47:04;14.10;99.90
11559;DHT22;5835;42.930;25.178;2023-07-28T01:49:31;14.20;99.90
11559;DHT22;5835;42.930;25.178;2023-07-28T01:51:59;14.10;99.90
11559;DHT22;5835;42.930;25.178;2023-07-28T01:54:26;14.30;99.90
11559;DHT22;5835;42.930;25.178;2023-07-28T01:56:54;14.40;99.90
11559;DHT22;5835;42.930;25.178;2023-07-28T01:59:22;14.50;99.90
11559;DHT22;5835;42.930;25.178;2023-07-28T02:01:51;14.40;99.90
11559;DHT22;5835;42.930;25.178;2023-07-28T02:04:19;14.20;99.90
11559;DHT22;5835;42.930;25.178;2023-07-28T02:06:47;14.30;99.90
11559;DHT22;5835;42.930;25.178;2023-07-28T02:09:15;13.90;99.90
11559;DHT22;5835;42.930;25.178;2023-07-28T02:11:43;13.60;1.00
11559;DHT22;5835;42.930;25.178;2023-07-28T02:14:11;13.40;22.00
11559;DHT22;5835;42.930;25.178;2023-07-28T02:16:39;13.30;1.00
11559;DHT22;5835;42.930;25.178;2023-07-28T02:19:08;13.10;99.90
11559;DHT22;5835;42.930;25.178;2023-07-28T02:21:36;13.30;1.00
11559;DHT22;5835;42.930;25.178;2023-07-28T02:24:04;13.50;99.90
11559;DHT22;5835;42.930;25.178;2023-07-28T02:26:32;13.40;1.00
11559;DHT22;5835;42.930;25.178;2023-07-28T02:29:00;13.40;99.90
11559;DHT22;5835;42.930;25.178;2023-07-28T02:31:28;13.40;99.90
11559;DHT22;5835;42.930;25.178;2023-07-28T02:33:56;13.30;99.90
11559;DHT22;5835;42.930;25.178;2023-07-28T02:36:25;13.20;99.90
11559;DHT22;5835;42.930;25.178;2023-07-28T02:38:52;13.20;97.20
11559;DHT22;5835;42.930;25.178;2023-07-28T02:41:20;13.10;99.90
11559;DHT22;5835;42.930;25.178;2023-07-28T02:43:48;12.90;92.20
11559;DHT22;5835;42.930;25.178;2023-07-28T02:46:15;12.80;1.00
11559;DHT22;5835;42.930;25.178;2023-07-28T02:48:43;12.90;99.90
11559;DHT22;5835;42.930;25.178;2023-07-28T02:51:10;12.90;33.20
11559;DHT22;5835;42.930;25.178;2023-07-28T02:53:39;12.90;99.90
11559;DHT22;5835;42.930;25.178;2023-07-28T02:56:07;12.90;99.90
11559;DHT22;5835;42.930;25.178;2023-07-28T02:58:35;12.80;99.90
11559;DHT22;5835;42.930;25.178;2023-07-28T03:01:02;12.90;1.00
11559;DHT22;5835;42.930;25.178;2023-07-28T03:03:30;12.80;99.90
11559;DHT22;5835;42.930;25.178;2023-07-28T03:05:58;12.70;60.30
11559;DHT22;5835;42.930;25.178;2023-07-28T03:08:25;12.60;1.00
11559;DHT22;5835;42.930;25.178;2023-07-28T03:10:58;12.70;99.90
11559;DHT22;5835;42.930;25.178;2023-07-28T03:13:28;12.80;1.00
11559;DHT22;5835;42.930;25.178;2023-07-28T03:15:55;12.90;1.00
11559;DHT22;5835;42.930;25.178;2023-07-28T03:18:23;13.00;1.00
11559;DHT22;5835;42.930;25.178;2023-07-28T03:20:50;13.10;1.00
11559;DHT22;5835;42.930;25.178;2023-07-28T03:23:18;13.00;1.00
11559;DHT22;5835;42.930;25.178;2023-07-28T03:25:45;13.20;1.00
11559;DHT22;5835;42.930;25.178;2023-07-28T03:28:14;13.10;1.00
11559;DHT22;5835;42.930;25.178;2023-07-28T03:30:42;13.00;1.00
11559;DHT22;5835;42.930;25.178;2023-07-28T03:33:09;13.00;1.00
11559;DHT22;5835;42.930;25.178;2023-07-28T03:35:37;13.20;43.10
11559;DHT22;5835;42.930;25.178;2023-07-28T03:38:04;13.30;1.00
11559;DHT22;5835;42.930;25.178;2023-07-28T03:40:32;13.30;99.90
11559;DHT22;5835;42.930;25.178;2023-07-28T03:43:00;13.20;99.90
11559;DHT22;5835;42.930;25.178;2023-07-28T03:45:29;13.20;1.00
11559;DHT22;5835;42.930;25.178;2023-07-28T03:47:57;13.20;99.90
11559;DHT22;5835;42.930;25.178;2023-07-28T03:50:25;13.10;99.90
11559;DHT22;5835;42.930;25.178;2023-07-28T03:52:54;13.10;1.00
11559;DHT22;5835;42.930;25.178;2023-07-28T03:55:21;13.10;99.90
11559;DHT22;5835;42.930;25.178;2023-07-28T03:57:49;13.20;4.20
11559;DHT22;5835;42.930;25.178;2023-07-28T04:00:16;13.20;99.90
11559;DHT22;5835;42.930;25.178;2023-07-28T04:02:45;13.20;1.00
11559;DHT22;5835;42.930;25.178;2023-07-28T04:05:13;13.30;99.90
11559;DHT22;5835;42.930;25.178;2023-07-28T04:07:41;13.40;89.90
11559;DHT22;5835;42.930;25.178;2023-07-28T04:10:09;13.50;87.70
11559;DHT22;5835;42.930;25.178;2023-07-28T04:12:36;13.60;99.90
11559;DHT22;5835;42.930;25.178;2023-07-28T04:15:04;13.60;1.00
11559;DHT22;5835;42.930;25.178;2023-07-28T04:17:32;13.70;1.00
11559;DHT22;5835;42.930;25.178;2023-07-28T04:20:01;13.80;99.90
11559;DHT22;5835;42.930;25.178;2023-07-28T04:22:29;13.60;99.90
11559;DHT22;5835;42.930;25.178;2023-07-28T04:24:56;13.60;29.90
11559;DHT22;5835;42.930;25.178;2023-07-28T04:27:24;13.80;99.90
11559;DHT22;5835;42.930;25.178;2023-07-28T04:29:51;14.00;99.90
11559;DHT22;5835;42.930;25.178;2023-07-28T04:32:19;14.00;99.90
11559;DHT22;5835;42.930;25.178;2023-07-28T04:34:46;14.10;1.00
11559;DHT22;5835;42.930;25.178;2023-07-28T04:37:15;14.20;1.00
11559;DHT22;5835;42.930;25.178;2023-07-28T04:39:43;14.40;1.00
11559;DHT22;5835;42.930;25.178;2023-07-28T04:42:11;14.60;1.00
11559;DHT22;5835;42.930;25.178;2023-07-28T04:44:38;14.70;37.90
11559;DHT22;5835;42.930;25.178;2023-07-28T04:47:07;14.80;1.00
11559;DHT22;5835;42.930;25.178;2023-07-28T04:49:34;14.80;1.00
11559;DHT22;5835;42.930;25.178;2023-07-28T04:52:03;15.00;1.00
11559;DHT22;5835;42.930;25.178;2023-07-28T04:54:32;15.10;99.90
11559;DHT22;5835;42.930;25.178;2023-07-28T04:56:59;15.20;99.90
11559;DHT22;5835;42.930;25.178;2023-07-28T04:59:27;15.30;99.90
11559;DHT22;5835;42.930;25.178;2023-07-28T05:01:55;15.40;99.90
11559;DHT22;5835;42.930;25.178;2023-07-28T05:04:22;15.50;99.90
11559;DHT22;5835;42.930;25.178;2023-07-28T05:06:50;15.70;99.90
11559;DHT22;5835;42.930;25.178;2023-07-28T05:09:17;15.90;1.00
11559;DHT22;5835;42.930;25.178;2023-07-28T05:11:47;16.10;1.00
11559;DHT22;5835;42.930;25.178;2023-07-28T05:14:14;16.30;1.00
11559;DHT22;5835;42.930;25.178;2023-07-28T05:16:42;16.30;1.00
11559;DHT22;5835;42.930;25.178;2023-07-28T05:19:09;16.50;1.00
11559;DHT22;5835;42.930;25.178;2023-07-28T05:21:37;16.60;1.00
11559;DHT22;5835;42.930;25.178;2023-07-28T05:24:05;16.70;99.90
11559;DHT22;5835;42.930;25.178;2023-07-28T05:26:32;16.70;99.90
11559;DHT22;5835;42.930;25.178;2023-07-28T05:29:01;16.80;1.00
11559;DHT22;5835;42.930;25.178;2023-07-28T05:31:29;16.90;1.00
11559;DHT22;5835;42.930;25.178;2023-07-28T05:33:56;17.00;1.00
11559;DHT22;5835;42.930;25.178;2023-07-28T05:36:24;17.10;1.00
11559;DHT22;5835;42.930;25.178;2023-07-28T05:38:52;17.40;1.00
11559;DHT22;5835;42.930;25.178;2023-07-28T05:41:21;17.50;1.00
11559;DHT22;5835;42.930;25.178;2023-07-28T05:43:49;17.60;99.90
11559;DHT22;5835;42.930;25.178;2023-07-28T05:46:18;17.60;99.90
11559;DHT22;5835;42.930;25.178;2023-07-28T05:48:46;17.80;99.90
11559;DHT22;5835;42.930;25.178;2023-07-28T05:51:13;18.00;99.90
11559;DHT22;5835;42.930;25.178;2023-07-28T06:04:31;17.90;99.90
11559;DHT22;5835;42.930;25.178;2023-07-28T06:06:59;18.90;99.90
11559;DHT22;5835;42.930;25.178;2023-07-28T06:09:27;18.70;96.90
11559;DHT22;5835;42.930;25.178;2023-07-28T06:11:54;18.80;99.90
11559;DHT22;5835;42.930;25.178;2023-07-28T06:14:22;18.90;85.80
11559;DHT22;5835;42.930;25.178;2023-07-28T06:16:49;19.00;77.80
11559;DHT22;5835;42.930;25.178;2023-07-28T06:19:18;19.10;59.50
11559;DHT22;5835;42.930;25.178;2023-07-28T06:21:51;19.30;49.00
11559;DHT22;5835;42.930;25.178;2023-07-28T06:24:18;19.50;40.50
11559;DHT22;5835;42.930;25.178;2023-07-28T06:26:46;19.70;23.40
11559;DHT22;5835;42.930;25.178;2023-07-28T06:29:13;19.90;10.00
11559;DHT22;5835;42.930;25.178;2023-07-28T06:31:41;20.00;21.20
11559;DHT22;5835;42.930;25.178;2023-07-28T06:34:09;20.00;1.00
11559;DHT22;5835;42.930;25.178;2023-07-28T06:36:36;19.80;1.00
11559;DHT22;5835;42.930;25.178;2023-07-28T06:39:05;19.80;1.00
11559;DHT22;5835;42.930;25.178;2023-07-28T06:41:33;20.00;1.00
11559;DHT22;5835;42.930;25.178;2023-07-28T06:44:01;20.30;1.00
11559;DHT22;5835;42.930;25.178;2023-07-28T06:46:29;20.40;1.00
11559;DHT22;5835;42.930;25.178;2023-07-28T06:48:56;20.80;1.00
11559;DHT22;5835;42.930;25.178;2023-07-28T06:51:25;21.10;1.00
11559;DHT22;5835;42.930;25.178;2023-07-28T06:53:53;21.10;1.00
11559;DHT22;5835;42.930;25.178;2023-07-28T06:56:22;21.30;1.00
11559;DHT22;5835;42.930;25.178;2023-07-28T06:58:49;21.10;1.00
11559;DHT22;5835;42.930;25.178;2023-07-28T07:01:17;21.30;1.00
11559;DHT22;5835;42.930;25.178;2023-07-28T07:03:44;21.30;1.00
11559;DHT22;5835;42.930;25.178;2023-07-28T07:06:12;21.40;1.00
11559;DHT22;5835;42.930;25.178;2023-07-28T07:08:39;21.60;1.00
11559;DHT22;5835;42.930;25.178;2023-07-28T07:11:07;21.40;1.00
11559;DHT22;5835;42.930;25.178;2023-07-28T07:13:36;21.50;1.00
11559;DHT22;5835;42.930;25.178;2023-07-28T07:16:04;21.70;1.00
11559;DHT22;5835;42.930;25.178;2023-07-28T07:18:32;21.70;1.00
11559;DHT22;5835;42.930;25.178;2023-07-28T07:21:01;21.90;1.00
11559;DHT22;5835;42.930;25.178;2023-07-28T07:23:31;22.00;1.00
11559;DHT22;5835;42.930;25.178;2023-07-28T07:25:59;22.00;1.00
11559;DHT22;5835;42.930;25.178;2023-07-28T07:28:27;22.10;1.00
11559;DHT22;5835;42.930;25.178;2023-07-28T07:30:56;22.40;1.00
11559;DHT22;5835;42.930;25.178;2023-07-28T07:33:24;22.50;1.00
11559;DHT22;5835;42.930;25.178;2023-07-28T07:35:51;22.30;1.00
11559;DHT22;5835;42.930;25.178;2023-07-28T07:38:19;22.20;1.00
11559;DHT22;5835;42.930;25.178;2023-07-28T07:40:47;22.40;1.00
11559;DHT22;5835;42.930;25.178;2023-07-28T07:43:15;22.70;1.00
11559;DHT22;5835;42.930;25.178;2023-07-28T07:45:46;22.50;1.00
11559;DHT22;5835;42.930;25.178;2023-07-28T07:48:17;22.60;1.00
11559;DHT22;5835;42.930;25.178;2023-07-28T07:50:44;23.10;1.00
11559;DHT22;5835;42.930;25.178;2023-07-28T07:53:12;23.20;1.00
11559;DHT22;5835;42.930;25.178;2023-07-28T07:55:39;23.20;1.00
11559;DHT22;5835;42.930;25.178;2023-07-28T07:58:07;23.30;1.00
11559;DHT22;5835;42.930;25.178;2023-07-28T08:00:37;23.30;1.00
11559;DHT22;5835;42.930;25.178;2023-07-28T08:03:05;23.40;1.00
11559;DHT22;5835;42.930;25.178;2023-07-28T08:05:34;23.40;1.00
11559;DHT22;5835;42.930;25.178;2023-07-28T08:08:02;23.30;1.00
11559;DHT22;5835;42.930;25.178;2023-07-28T08:10:31;23.60;1.00
11559;DHT22;5835;42.930;25.178;2023-07-28T08:12:58;23.70;1.00
11559;DHT22;5835;42.930;25.178;2023-07-28T08:15:26;23.80;1.00
11559;DHT22;5835;42.930;25.178;2023-07-28T08:17:54;23.90;1.00
11559;DHT22;5835;42.930;25.178;2023-07-28T08:20:21;24.20;1.00
11559;DHT22;5835;42.930;25.178;2023-07-28T08:22:50;24.10;1.00
11559;DHT22;5835;42.930;25.178;2023-07-28T08:25:18;23.90;1.00
11559;DHT22;5835;42.930;25.178;2023-07-28T08:27:46;23.90;1.00
11559;DHT22;5835;42.930;25.178;2023-07-28T08:30:13;24.00;1.00
11559;DHT22;5835;42.930;25.178;2023-07-28T08:32:41;24.30;1.00
11559;DHT22;5835;42.930;25.178;2023-07-28T08:35:09;25.10;1.00
11559;DHT22;5835;42.930;25.178;2023-07-28T08:37:37;25.40;1.00
11559;DHT22;5835;42.930;25.178;2023-07-28T08:40:07;24.90;1.00
11559;DHT22;5835;42.930;25.178;2023-07-28T08:42:37;25.50;1.00
11559;DHT22;5835;42.930;25.178;2023-07-28T08:45:06;26.10;1.00
11559;DHT22;5835;42.930;25.178;2023-07-28T08:47:35;26.20;1.00
11559;DHT22;5835;42.930;25.178;2023-07-28T08:50:03;26.30;1.00
11559;DHT22;5835;42.930;25.178;2023-07-28T08:52:32;25.90;99.90
11559;DHT22;5835;42.930;25.178;2023-07-28T08:54:59;25.60;99.90
11559;DHT22;5835;42.930;25.178;2023-07-28T08:57:29;25.30;99.90
11559;DHT22;5835;42.930;25.178;2023-07-28T08:59:56;25.30;99.90
11559;DHT22;5835;42.930;25.178;2023-07-28T09:02:24;25.70;99.90
11559;DHT22;5835;42.930;25.178;2023-07-28T09:04:52;25.50;99.90
11559;DHT22;5835;42.930;25.178;2023-07-28T09:07:19;25.30;99.90
11559;DHT22;5835;42.930;25.178;2023-07-28T09:09:47;25.90;99.90
11559;DHT22;5835;42.930;25.178;2023-07-28T09:12:15;26.20;99.90
11559;DHT22;5835;42.930;25.178;2023-07-28T09:14:44;26.70;99.90
11559;DHT22;5835;42.930;25.178;2023-07-28T09:17:13;27.40;99.90
11559;DHT22;5835;42.930;25.178;2023-07-28T09:19:50;26.40;99.90
11559;DHT22;5835;42.930;25.178;2023-07-28T09:22:18;26.60;99.90
11559;DHT22;5835;42.930;25.178;2023-07-28T09:24:47;26.90;99.90
11559;DHT22;5835;42.930;25.178;2023-07-28T09:27:22;27.30;99.90
11559;DHT22;5835;42.930;25.178;2023-07-28T09:29:53;27.80;99.90
11559;DHT22;5835;42.930;25.178;2023-07-28T09:32:28;27.60;99.90
11559;DHT22;5835;42.930;25.178;2023-07-28T09:35:11;27.70;99.90
11559;DHT22;5835;42.930;25.178;2023-07-28T09:37:40;27.50;99.90
11559;DHT22;5835;42.930;25.178;2023-07-28T09:40:09;27.00;99.90
11559;DHT22;5835;42.930;25.178;2023-07-28T09:42:38;27.30;99.90
11559;DHT22;5835;42.930;25.178;2023-07-28T09:45:07;27.40;99.90
11559;DHT22;5835;42.930;25.178;2023-07-28T09:47:37;27.50;99.90
11559;DHT22;5835;42.930;25.178;2023-07-28T09:50:07;28.10;99.90
11559;DHT22;5835;42.930;25.178;2023-07-28T09:52:38;28.50;99.90
11559;DHT22;5835;42.930;25.178;2023-07-28T09:55:08;29.30;99.90
11559;DHT22;5835;42.930;25.178;2023-07-28T09:57:39;29.20;99.90
11559;DHT22;5835;42.930;25.178;2023-07-28T10:00:12;28.70;99.90
11559;DHT22;5835;42.930;25.178;2023-07-28T10:02:40;28.50;99.90
11559;DHT22;5835;42.930;25.178;2023-07-28T10:05:08;28.10;99.90
11559;DHT22;5835;42.930;25.178;2023-07-28T10:07:39;27.40;99.90
11559;DHT22;5835;42.930;25.178;2023-07-28T10:10:10;27.60;99.90
11559;DHT22;5835;42.930;25.178;2023-07-28T10:12:41;27.30;99.90
11559;DHT22;5835;42.930;25.178;2023-07-28T10:15:15;26.80;99.90
11559;DHT22;5835;42.930;25.178;2023-07-28T10:17:47;27.40;99.90
11559;DHT22;5835;42.930;25.178;2023-07-28T10:20:31;27.70;99.90
11559;DHT22;5835;42.930;25.178;2023-07-28T10:23:04;28.50;99.90
11559;DHT22;5835;42.930;25.178;2023-07-28T10:25:34;28.00;99.90
11559;DHT22;5835;42.930;25.178;2023-07-28T10:28:02;27.10;99.90
11559;DHT22;5835;42.930;25.178;2023-07-28T10:30:37;27.50;99.90
11559;DHT22;5835;42.930;25.178;2023-07-28T10:33:05;27.50;99.90
11559;DHT22;5835;42.930;25.178;2023-07-28T10:35:33;28.30;99.90
11559;DHT22;5835;42.930;25.178;2023-07-28T10:38:28;27.60;99.90
11559;DHT22;5835;42.930;25.178;2023-07-28T10:41:09;27.30;99.90
11559;DHT22;5835;42.930;25.178;2023-07-28T10:43:37;27.80;99.90
11559;DHT22;5835;42.930;25.178;2023-07-28T10:46:08;27.50;99.90
11559;DHT22;5835;42.930;25.178;2023-07-28T10:48:36;28.00;99.90
11559;DHT22;5835;42.930;25.178;2023-07-28T10:51:05;28.20;99.90
11559;DHT22;5835;42.930;25.178;2023-07-28T10:53:33;28.70;99.90
11559;DHT22;5835;42.930;25.178;2023-07-28T10:56:02;29.00;99.90
11559;DHT22;5835;42.930;25.178;2023-07-28T10:58:31;29.40;99.90
11559;DHT22;5835;42.930;25.178;2023-07-28T11:01:01;30.00;99.90
11559;DHT22;5835;42.930;25.178;2023-07-28T11:03:30;30.70;99.90
11559;DHT22;5835;42.930;25.178;2023-07-28T11:05:58;31.40;99.90
11559;DHT22;5835;42.930;25.178;2023-07-28T11:08:26;31.50;99.90
11559;DHT22;5835;42.930;25.178;2023-07-28T11:10:53;31.70;99.90
11559;DHT22;5835;42.930;25.178;2023-07-28T11:13:22;32.20;99.90
11559;DHT22;5835;42.930;25.178;2023-07-28T11:15:51;32.20;99.90
11559;DHT22;5835;42.930;25.178;2023-07-28T11:18:19;32.30;99.90
11559;DHT22;5835;42.930;25.178;2023-07-28T11:20:48;32.00;99.90
11559;DHT22;5835;42.930;25.178;2023-07-28T11:23:16;31.90;99.90
11559;DHT22;5835;42.930;25.178;2023-07-28T11:25:44;30.90;99.90
11559;DHT22;5835;42.930;25.178;2023-07-28T11:28:13;30.60;99.90
11559;DHT22;5835;42.930;25.178;2023-07-28T11:30:41;30.10;99.90
11559;DHT22;5835;42.930;25.178;2023-07-28T11:33:10;30.50;99.90
11559;DHT22;5835;42.930;25.178;2023-07-28T11:35:39;29.60;99.90
11559;DHT22;5835;42.930;25.178;2023-07-28T11:38:08;30.30;99.90
11559;DHT22;5835;42.930;25.178;2023-07-28T11:40:36;30.70;99.90
11559;DHT22;5835;42.930;25.178;2023-07-28T11:43:04;30.70;99.90
11559;DHT22;5835;42.930;25.178;2023-07-28T11:45:32;30.80;99.90
11559;DHT22;5835;42.930;25.178;2023-07-28T11:48:02;31.50;99.90
11559;DHT22;5835;42.930;25.178;2023-07-28T11:50:38;32.20;99.90
11559;DHT22;5835;42.930;25.178;2023-07-28T11:53:08;31.70;99.90
11559;DHT22;5835;42.930;25.178;2023-07-28T11:55:38;31.80;99.90
11559;DHT22;5835;42.930;25.178;2023-07-28T11:58:07;31.80;99.90
11559;DHT22;5835;42.930;25.178;2023-07-28T12:00:39;31.90;99.90
11559;DHT22;5835;42.930;25.178;2023-07-28T12:03:11;33.00;99.90
11559;DHT22;5835;42.930;25.178;2023-07-28T12:05:40;31.80;99.90
11559;DHT22;5835;42.930;25.178;2023-07-28T12:08:10;30.60;99.90
11559;DHT22;5835;42.930;25.178;2023-07-28T12:10:48;31.10;99.90
11559;DHT22;5835;42.930;25.178;2023-07-28T12:13:20;31.50;99.90
11559;DHT22;5835;42.930;25.178;2023-07-28T12:15:52;31.80;99.90
11559;DHT22;5835;42.930;25.178;2023-07-28T12:18:20;31.60;99.90
11559;DHT22;5835;42.930;25.178;2023-07-28T12:20:49;30.70;99.90
11559;DHT22;5835;42.930;25.178;2023-07-28T12:23:20;30.60;99.90
11559;DHT22;5835;42.930;25.178;2023-07-28T12:25:48;31.60;99.90
11559;DHT22;5835;42.930;25.178;2023-07-28T12:28:16;32.00;99.90
11559;DHT22;5835;42.930;25.178;2023-07-28T12:30:44;31.60;99.90
11559;DHT22;5835;42.930;25.178;2023-07-28T12:33:14;31.00;99.90
11559;DHT22;5835;42.930;25.178;2023-07-28T12:35:42;31.60;99.90
11559;DHT22;5835;42.930;25.178;2023-07-28T12:38:10;32.30;99.90
11559;DHT22;5835;42.930;25.178;2023-07-28T12:40:38;33.20;99.90
11559;DHT22;5835;42.930;25.178;2023-07-28T12:43:06;33.00;99.90
11559;DHT22;5835;42.930;25.178;2023-07-28T12:45:33;30.60;99.90
11559;DHT22;5835;42.930;25.178;2023-07-28T12:48:01;30.40;99.90
11559;DHT22;5835;42.930;25.178;2023-07-28T12:50:29;29.70;99.90
11559;DHT22;5835;42.930;25.178;2023-07-28T12:52:57;30.50;99.90
11559;DHT22;5835;42.930;25.178;2023-07-28T12:55:24;30.10;99.90
11559;DHT22;5835;42.930;25.178;2023-07-28T12:57:54;30.40;99.90
11559;DHT22;5835;42.930;25.178;2023-07-28T13:00:24;30.70;99.90
11559;DHT22;5835;42.930;25.178;2023-07-28T13:02:52;30.30;99.90
11559;DHT22;5835;42.930;25.178;2023-07-28T13:05:19;30.10;99.90
11559;DHT22;5835;42.930;25.178;2023-07-28T13:07:47;30.60;99.90
11559;DHT22;5835;42.930;25.178;2023-07-28T13:10:15;30.80;99.90
11559;DHT22;5835;42.930;25.178;2023-07-28T13:12:43;31.70;99.90
11559;DHT22;5835;42.930;25.178;2023-07-28T13:15:12;31.20;99.90
11559;DHT22;5835;42.930;25.178;2023-07-28T13:17:40;32.80;99.90
11559;DHT22;5835;42.930;25.178;2023-07-28T13:20:08;32.80;99.90
11559;DHT22;5835;42.930;25.178;2023-07-28T13:22:37;32.80;99.90
11559;DHT22;5835;42.930;25.178;2023-07-28T13:25:05;31.60;99.90
11559;DHT22;5835;42.930;25.178;2023-07-28T13:27:32;31.20;99.90
11559;DHT22;5835;42.930;25.178;2023-07-28T13:30:00;31.90;99.90
11559;DHT22;5835;42.930;25.178;2023-07-28T13:32:30;30.60;99.90
11559;DHT22;5835;42.930;25.178;2023-07-28T13:34:58;31.70;99.90
11559;DHT22;5835;42.930;25.178;2023-07-28T13:37:26;32.00;99.90
11559;DHT22;5835;42.930;25.178;2023-07-28T13:39:53;31.20;99.90
11559;DHT22;5835;42.930;25.178;2023-07-28T13:42:21;31.70;99.90
11559;DHT22;5835;42.930;25.178;2023-07-28T13:44:49;31.60;99.90
11559;DHT22;5835;42.930;25.178;2023-07-28T13:47:17;31.90;99.90
11559;DHT22;5835;42.930;25.178;2023-07-28T13:49:46;31.50;99.90
11559;DHT22;5835;42.930;25.178;2023-07-28T13:52:13;31.20;99.90
11559;DHT22;5835;42.930;25.178;2023-07-28T13:54:41;31.40;99.90
11559;DHT22;5835;42.930;25.178;2023-07-28T13:57:09;30.90;99.90
11559;DHT22;5835;42.930;25.178;2023-07-28T13:59:37;30.90;99.90
11559;DHT22;5835;42.930;25.178;2023-07-28T14:02:04;31.30;99.90
11559;DHT22;5835;42.930;25.178;2023-07-28T14:04:32;30.90;99.90
11559;DHT22;5835;42.930;25.178;2023-07-28T14:07:02;30.70;99.90
11559;DHT22;5835;42.930;25.178;2023-07-28T14:09:30;31.00;99.90
11559;DHT22;5835;42.930;25.178;2023-07-28T14:11:57;30.70;99.90
11559;DHT22;5835;42.930;25.178;2023-07-28T14:14:25;30.10;99.90
11559;DHT22;5835;42.930;25.178;2023-07-28T14:16:53;30.50;99.90
11559;DHT22;5835;42.930;25.178;2023-07-28T14:19:21;31.10;99.90
11559;DHT22;5835;42.930;25.178;2023-07-28T14:21:48;31.00;99.90
11559;DHT22;5835;42.930;25.178;2023-07-28T14:24:17;31.10;99.90
11559;DHT22;5835;42.930;25.178;2023-07-28T14:26:45;31.10;99.90
11559;DHT22;5835;42.930;25.178;2023-07-28T14:29:13;31.30;99.90
11559;DHT22;5835;42.930;25.178;2023-07-28T14:31:41;31.50;99.90
11559;DHT22;5835;42.930;25.178;2023-07-28T14:34:08;31.90;99.90
11559;DHT22;5835;42.930;25.178;2023-07-28T14:36:36;31.20;99.90
11559;DHT22;5835;42.930;25.178;2023-07-28T14:39:04;32.10;99.90
11559;DHT22;5835;42.930;25.178;2023-07-28T14:41:33;32.40;99.90
11559;DHT22;5835;42.930;25.178;2023-07-28T14:44:01;32.70;99.90
11559;DHT22;5835;42.930;25.178;2023-07-28T14:46:29;32.30;99.90
11559;DHT22;5835;42.930;25.178;2023-07-28T14:48:57;31.80;99.90
11559;DHT22;5835;42.930;25.178;2023-07-28T14:51:25;32.60;99.90
11559;DHT22;5835;42.930;25.178;2023-07-28T14:53:53;33.90;99.90
11559;DHT22;5835;42.930;25.178;2023-07-28T14:56:21;34.60;99.90
11559;DHT22;5835;42.930;25.178;2023-07-28T14:58:52;35.00;99.90
11559;DHT22;5835;42.930;25.178;2023-07-28T15:01:20;35.60;99.90
11559;DHT22;5835;42.930;25.178;2023-07-28T15:03:48;36.30;99.90
11559;DHT22;5835;42.930;25.178;2023-07-28T15:06:16;35.90;99.90
11559;DHT22;5835;42.930;25.178;2023-07-28T15:08:43;35.60;99.90
11559;DHT22;5835;42.930;25.178;2023-07-28T15:11:11;35.60;99.90
11559;DHT22;5835;42.930;25.178;2023-07-28T15:13:39;36.00;99.90
11559;DHT22;5835;42.930;25.178;2023-07-28T15:16:08;36.00;99.90
11559;DHT22;5835;42.930;25.178;2023-07-28T15:18:35;35.60;99.90
11559;DHT22;5835;42.930;25.178;2023-07-28T15:21:03;35.70;99.90
11559;DHT22;5835;42.930;25.178;2023-07-28T15:23:31;34.50;99.90
11559;DHT22;5835;42.930;25.178;2023-07-28T15:25:58;34.20;99.90
11559;DHT22;5835;42.930;25.178;2023-07-28T15:28:26;33.20;99.90
11559;DHT22;5835;42.930;25.178;2023-07-28T15:30:53;32.40;99.90
11559;DHT22;5835;42.930;25.178;2023-07-28T15:33:25;31.90;99.90
11559;DHT22;5835;42.930;25.178;2023-07-28T15:35:55;32.20;99.90
11559;DHT22;5835;42.930;25.178;2023-07-28T15:38:23;33.00;99.90
11559;DHT22;5835;42.930;25.178;2023-07-28T15:40:50;32.90;99.90
11559;DHT22;5835;42.930;25.178;2023-07-28T15:43:23;33.00;99.90
11559;DHT22;5835;42.930;25.178;2023-07-28T15:45:50;32.90;99.90
11559;DHT22;5835;42.930;25.178;2023-07-28T15:48:22;33.60;99.90
11559;DHT22;5835;42.930;25.178;2023-07-28T15:50:49;32.90;99.90
11559;DHT22;5835;42.930;25.178;2023-07-28T15:53:17;33.30;99.90